sensor_id;sensor_type;location;lat;lon;timestamp;temperature;humidity
11538;DHT22;50159;49.426;11.182;2022-07-30T00:00:37;17.10;99.90
11538;DHT22;50159;49.426;11.182;2022-07-30T00:03:04;17.10;99.90
11538;DHT22;50159;49.426;11.182;2022-07-30T00:05:31;17.00;99.90
11538;DHT22;50159;49.426;11.182;2022-07-30T00:07:58;17.00;99.90
11538;DHT22;50159;49.426;11.182;2022-07-30T00:10:25;17.00;99.90
11538;DHT22;50159;49.426;11.182;2022-07-30T00:12:53;16.90;99.90
11538;DHT22;50159;49.426;11.182;2022-07-30T00:15:19;16.90;99.90
11538;DHT22;50159;49.426;11.182;2022-07-30T00:17:46;16.80;99.90
11538;DHT22;50159;49.426;11.182;2022-07-30T00:20:15;16.70;99.90
11538;DHT22;50159;49.426;11.182;2022-07-30T00:22:44;16.70;99.90
11538;DHT22;50159;49.426;11.182;2022-07-30T00:25:12;16.70;99.90
11538;DHT22;50159;49.426;11.182;2022-07-30T00:27:40;16.70;99.90
11538;DHT22;50159;49.426;11.182;2022-07-30T00:30:08;16.60;99.90
11538;DHT22;50159;49.426;11.182;2022-07-30T00:32:43;16.60;99.90
11538;DHT22;50159;49.426;11.182;2022-07-30T00:35:10;16.60;99.90
11538;DHT22;50159;49.426;11.182;2022-07-30T00:37:37;16.60;99.90
11538;DHT22;50159;49.426;11.182;2022-07-30T00:40:06;16.60;99.90
11538;DHT22;50159;49.426;11.182;2022-07-30T00:42:40;16.60;99.90
11538;DHT22;50159;49.426;11.182;2022-07-30T00:45:09;16.50;99.90
11538;DHT22;50159;49.426;11.182;2022-07-30T00:47:38;16.50;99.90
11538;DHT22;50159;49.426;11.182;2022-07-30T00:50:07;16.50;99.90
11538;DHT22;50159;49.426;11.182;2022-07-30T00:52:36;16.50;99.90
11538;DHT22;50159;49.426;11.182;2022-07-30T00:55:05;16.50;99.90
11538;DHT22;50159;49.426;11.182;2022-07-30T00:57:34;16.40;99.90
11538;DHT22;50159;49.426;11.182;2022-07-30T01:00:02;16.40;99.90
11538;DHT22;50159;49.426;11.182;2022-07-30T01:02:32;16.30;99.90
11538;DHT22;50159;49.426;11.182;2022-07-30T01:04:59;16.30;99.90
11538;DHT22;50159;49.426;11.182;2022-07-30T01:07:26;16.20;99.90
11538;DHT22;50159;49.426;11.182;2022-07-30T01:09:53;16.20;99.90
11538;DHT22;50159;49.426;11.182;2022-07-30T01:12:23;16.10;99.90
11538;DHT22;50159;49.426;11.182;2022-07-30T01:14:54;16.00;99.90
11538;DHT22;50159;49.426;11.182;2022-07-30T01:17:23;16.00;99.90
11538;DHT22;50159;49.426;11.182;2022-07-30T01:19:53;16.00;99.90
11538;DHT22;50159;49.426;11.182;2022-07-30T01:27:32;15.90;99.90
11538;DHT22;50159;49.426;11.182;2022-07-30T01:30:04;15.90;99.90
11538;DHT22;50159;49.426;11.182;2022-07-30T01:32:33;15.90;99.90
11538;DHT22;50159;49.426;11.182;2022-07-30T01:35:06;15.90;99.90
11538;DHT22;50159;49.426;11.182;2022-07-30T01:37:36;15.80;99.90
11538;DHT22;50159;49.426;11.182;2022-07-30T01:40:04;15.80;99.90
11538;DHT22;50159;49.426;11.182;2022-07-30T01:42:33;15.70;99.90
11538;DHT22;50159;49.426;11.182;2022-07-30T01:45:04;15.70;99.90
11538;DHT22;50159;49.426;11.182;2022-07-30T01:47:36;15.60;99.90
11538;DHT22;50159;49.426;11.182;2022-07-30T01:50:06;15.60;99.90
11538;DHT22;50159;49.426;11.182;2022-07-30T01:52:40;15.60;99.90
11538;DHT22;50159;49.426;11.182;2022-07-30T01:55:14;15.60;99.90
11538;DHT22;50159;49.426;11.182;2022-07-30T01:57:47;15.50;99.90
11538;DHT22;50159;49.426;11.182;2022-07-30T02:00:16;15.50;99.90
11538;DHT22;50159;49.426;11.182;2022-07-30T02:02:46;15.50;99.90
11538;DHT22;50159;49.426;11.182;2022-07-30T02:05:13;15.50;99.90
11538;DHT22;50159;49.426;11.182;2022-07-30T02:08:15;15.50;99.90
11538;DHT22;50159;49.426;11.182;2022-07-30T02:10:55;15.50;99.90
11538;DHT22;50159;49.426;11.182;2022-07-30T02:13:27;15.50;99.90
11538;DHT22;50159;49.426;11.182;2022-07-30T02:15:59;15.50;99.90
11538;DHT22;50159;49.426;11.182;2022-07-30T02:18:47;15.50;99.90
11538;DHT22;50159;49.426;11.182;2022-07-30T02:21:24;15.50;99.90
11538;DHT22;50159;49.426;11.182;2022-07-30T02:24:05;15.40;99.90
11538;DHT22;50159;49.426;11.182;2022-07-30T02:26:40;15.40;99.90
11538;DHT22;50159;49.426;11.182;2022-07-30T02:29:09;15.40;99.90
11538;DHT22;50159;49.426;11.182;2022-07-30T02:31:38;15.30;99.90
11538;DHT22;50159;49.426;11.182;2022-07-30T02:34:07;15.30;99.90
11538;DHT22;50159;49.426;11.182;2022-07-30T02:36:37;15.30;99.90
11538;DHT22;50159;49.426;11.182;2022-07-30T02:39:07;15.30;99.90
11538;DHT22;50159;49.426;11.182;2022-07-30T02:41:37;15.20;99.90
11538;DHT22;50159;49.426;11.182;2022-07-30T02:44:06;15.20;99.90
11538;DHT22;50159;49.426;11.182;2022-07-30T02:46:35;15.10;99.90
11538;DHT22;50159;49.426;11.182;2022-07-30T02:49:06;15.10;99.90
11538;DHT22;50159;49.426;11.182;2022-07-30T02:51:35;15.10;99.90
11538;DHT22;50159;49.426;11.182;2022-07-30T02:54:03;15.10;99.90
11538;DHT22;50159;49.426;11.182;2022-07-30T02:56:31;15.00;99.90
11538;DHT22;50159;49.426;11.182;2022-07-30T02:59:01;15.00;99.90
11538;DHT22;50159;49.426;11.182;2022-07-30T03:01:30;15.00;99.90
11538;DHT22;50159;49.426;11.182;2022-07-30T03:04:00;15.00;99.90
11538;DHT22;50159;49.426;11.182;2022-07-30T03:06:28;15.10;99.90
11538;DHT22;50159;49.426;11.182;2022-07-30T03:08:58;15.10;99.90
11538;DHT22;50159;49.426;11.182;2022-07-30T03:11:30;15.10;99.90
11538;DHT22;50159;49.426;11.182;2022-07-30T03:13:59;15.10;99.90
11538;DHT22;50159;49.426;11.182;2022-07-30T03:16:27;15.10;99.90
11538;DHT22;50159;49.426;11.182;2022-07-30T03:18:57;15.10;99.90
11538;DHT22;50159;49.426;11.182;2022-07-30T03:21:32;15.10;99.90
11538;DHT22;50159;49.426;11.182;2022-07-30T03:24:04;15.00;99.90
11538;DHT22;50159;49.426;11.182;2022-07-30T03:26:34;15.00;99.90
11538;DHT22;50159;49.426;11.182;2022-07-30T03:29:02;15.00;99.90
11538;DHT22;50159;49.426;11.182;2022-07-30T03:31:30;15.00;99.90
11538;DHT22;50159;49.426;11.182;2022-07-30T03:34:05;15.00;99.90
11538;DHT22;50159;49.426;11.182;2022-07-30T03:36:34;15.00;99.90
11538;DHT22;50159;49.426;11.182;2022-07-30T03:39:03;14.90;99.90
11538;DHT22;50159;49.426;11.182;2022-07-30T03:41:31;14.90;99.90
11538;DHT22;50159;49.426;11.182;2022-07-30T03:44:00;14.90;99.90
11538;DHT22;50159;49.426;11.182;2022-07-30T03:46:28;14.90;99.90
11538;DHT22;50159;49.426;11.182;2022-07-30T03:48:56;14.90;99.90
11538;DHT22;50159;49.426;11.182;2022-07-30T03:51:26;14.90;99.90
11538;DHT22;50159;49.426;11.182;2022-07-30T03:53:58;14.90;99.90
11538;DHT22;50159;49.426;11.182;2022-07-30T03:56:26;14.90;99.90
11538;DHT22;50159;49.426;11.182;2022-07-30T03:58:54;14.90;99.90
11538;DHT22;50159;49.426;11.182;2022-07-30T04:01:26;14.90;99.90
11538;DHT22;50159;49.426;11.182;2022-07-30T04:03:53;15.00;99.90
11538;DHT22;50159;49.426;11.182;2022-07-30T04:06:20;15.00;99.90
11538;DHT22;50159;49.426;11.182;2022-07-30T04:08:47;15.00;99.90
11538;DHT22;50159;49.426;11.182;2022-07-30T04:11:14;15.10;99.90
11538;DHT22;50159;49.426;11.182;2022-07-30T04:13:41;15.20;99.90
11538;DHT22;50159;49.426;11.182;2022-07-30T04:16:13;15.10;99.90
11538;DHT22;50159;49.426;11.182;2022-07-30T04:19:07;15.20;99.90
11538;DHT22;50159;49.426;11.182;2022-07-30T04:21:40;15.20;99.90
11538;DHT22;50159;49.426;11.182;2022-07-30T04:24:08;15.30;99.90
11538;DHT22;50159;49.426;11.182;2022-07-30T04:26:36;15.30;99.90
11538;DHT22;50159;49.426;11.182;2022-07-30T04:29:07;15.40;99.90
11538;DHT22;50159;49.426;11.182;2022-07-30T04:31:40;15.40;99.90
11538;DHT22;50159;49.426;11.182;2022-07-30T04:34:07;15.40;99.90
11538;DHT22;50159;49.426;11.182;2022-07-30T04:36:40;15.50;99.90
11538;DHT22;50159;49.426;11.182;2022-07-30T04:39:07;15.50;99.90
11538;DHT22;50159;49.426;11.182;2022-07-30T04:41:35;15.50;99.90
11538;DHT22;50159;49.426;11.182;2022-07-30T04:44:17;15.60;99.90
11538;DHT22;50159;49.426;11.182;2022-07-30T04:46:45;15.60;99.90
11538;DHT22;50159;49.426;11.182;2022-07-30T04:49:15;15.70;99.90
11538;DHT22;50159;49.426;11.182;2022-07-30T04:51:44;15.80;99.90
11538;DHT22;50159;49.426;11.182;2022-07-30T04:54:13;15.80;99.90
11538;DHT22;50159;49.426;11.182;2022-07-30T04:56:45;15.90;99.90
11538;DHT22;50159;49.426;11.182;2022-07-30T04:59:26;15.90;99.90
11538;DHT22;50159;49.426;11.182;2022-07-30T05:01:56;16.00;99.90
11538;DHT22;50159;49.426;11.182;2022-07-30T05:04:25;16.00;99.90
11538;DHT22;50159;49.426;11.182;2022-07-30T05:06:55;16.00;99.90
11538;DHT22;50159;49.426;11.182;2022-07-30T05:09:23;16.10;99.90
11538;DHT22;50159;49.426;11.182;2022-07-30T05:11:54;16.10;99.90
11538;DHT22;50159;49.426;11.182;2022-07-30T05:14:22;16.10;99.90
11538;DHT22;50159;49.426;11.182;2022-07-30T05:16:50;16.20;99.90
11538;DHT22;50159;49.426;11.182;2022-07-30T05:19:19;16.20;99.90
11538;DHT22;50159;49.426;11.182;2022-07-30T05:21:46;16.30;99.90
11538;DHT22;50159;49.426;11.182;2022-07-30T05:24:13;16.30;99.90
11538;DHT22;50159;49.426;11.182;2022-07-30T05:26:40;16.40;99.90
11538;DHT22;50159;49.426;11.182;2022-07-30T05:29:07;16.50;99.90
11538;DHT22;50159;49.426;11.182;2022-07-30T05:31:42;16.50;99.90
11538;DHT22;50159;49.426;11.182;2022-07-30T05:34:10;16.60;99.90
11538;DHT22;50159;49.426;11.182;2022-07-30T05:36:37;16.60;99.90
11538;DHT22;50159;49.426;11.182;2022-07-30T05:39:04;16.60;99.90
11538;DHT22;50159;49.426;11.182;2022-07-30T05:41:31;16.70;99.90
11538;DHT22;50159;49.426;11.182;2022-07-30T05:43:59;16.70;99.90
11538;DHT22;50159;49.426;11.182;2022-07-30T05:46:27;16.70;99.90
11538;DHT22;50159;49.426;11.182;2022-07-30T05:48:54;16.80;99.90
11538;DHT22;50159;49.426;11.182;2022-07-30T05:51:21;16.80;99.90
11538;DHT22;50159;49.426;11.182;2022-07-30T05:53:48;16.80;99.90
11538;DHT22;50159;49.426;11.182;2022-07-30T05:56:15;16.90;99.90
11538;DHT22;50159;49.426;11.182;2022-07-30T05:58:42;16.90;99.90
11538;DHT22;50159;49.426;11.182;2022-07-30T06:01:09;16.90;99.90
11538;DHT22;50159;49.426;11.182;2022-07-30T06:03:37;16.90;99.90
11538;DHT22;50159;49.426;11.182;2022-07-30T06:06:06;16.90;99.90
11538;DHT22;50159;49.426;11.182;2022-07-30T06:08:33;16.80;99.90
11538;DHT22;50159;49.426;11.182;2022-07-30T06:11:00;16.80;99.90
11538;DHT22;50159;49.426;11.182;2022-07-30T06:13:27;16.90;99.90
11538;DHT22;50159;49.426;11.182;2022-07-30T06:15:54;16.90;99.90
11538;DHT22;50159;49.426;11.182;2022-07-30T06:18:21;16.90;99.90
11538;DHT22;50159;49.426;11.182;2022-07-30T06:20:50;16.90;99.90
11538;DHT22;50159;49.426;11.182;2022-07-30T06:23:20;17.00;99.90
11538;DHT22;50159;49.426;11.182;2022-07-30T06:25:47;17.00;99.90
11538;DHT22;50159;49.426;11.182;2022-07-30T06:28:16;17.00;99.90
11538;DHT22;50159;49.426;11.182;2022-07-30T06:31:03;17.00;99.90
11538;DHT22;50159;49.426;11.182;2022-07-30T06:33:31;17.10;99.90
11538;DHT22;50159;49.426;11.182;2022-07-30T06:35:59;17.20;99.90
11538;DHT22;50159;49.426;11.182;2022-07-30T06:38:26;17.30;99.90
11538;DHT22;50159;49.426;11.182;2022-07-30T06:40:55;17.50;99.90
11538;DHT22;50159;49.426;11.182;2022-07-30T06:43:28;17.60;99.90
11538;DHT22;50159;49.426;11.182;2022-07-30T06:45:55;17.60;99.90
11538;DHT22;50159;49.426;11.182;2022-07-30T06:48:22;17.80;99.90
11538;DHT22;50159;49.426;11.182;2022-07-30T06:50:49;18.00;99.90
11538;DHT22;50159;49.426;11.182;2022-07-30T06:53:16;18.20;99.90
11538;DHT22;50159;49.426;11.182;2022-07-30T06:55:43;18.30;99.90
11538;DHT22;50159;49.426;11.182;2022-07-30T06:58:09;18.40;99.90
11538;DHT22;50159;49.426;11.182;2022-07-30T07:00:36;18.40;99.90
11538;DHT22;50159;49.426;11.182;2022-07-30T07:03:03;18.40;99.90
11538;DHT22;50159;49.426;11.182;2022-07-30T07:05:36;18.60;99.90
11538;DHT22;50159;49.426;11.182;2022-07-30T07:08:04;18.80;99.90
11538;DHT22;50159;49.426;11.182;2022-07-30T07:10:31;19.10;99.90
11538;DHT22;50159;49.426;11.182;2022-07-30T07:12:58;19.20;99.90
11538;DHT22;50159;49.426;11.182;2022-07-30T07:15:26;19.40;99.90
11538;DHT22;50159;49.426;11.182;2022-07-30T07:18:03;19.30;99.90
11538;DHT22;50159;49.426;11.182;2022-07-30T07:20:31;19.30;99.90
11538;DHT22;50159;49.426;11.182;2022-07-30T07:22:58;19.40;99.90
11538;DHT22;50159;49.426;11.182;2022-07-30T07:25:32;19.30;99.90
11538;DHT22;50159;49.426;11.182;2022-07-30T07:27:59;19.30;99.90
11538;DHT22;50159;49.426;11.182;2022-07-30T07:30:39;19.50;99.90
11538;DHT22;50159;49.426;11.182;2022-07-30T07:33:07;19.70;99.90
11538;DHT22;50159;49.426;11.182;2022-07-30T07:35:33;19.70;99.90
11538;DHT22;50159;49.426;11.182;2022-07-30T07:38:16;19.60;99.90
11538;DHT22;50159;49.426;11.182;2022-07-30T07:40:44;19.50;99.90
11538;DHT22;50159;49.426;11.182;2022-07-30T07:43:12;19.40;99.90
11538;DHT22;50159;49.426;11.182;2022-07-30T07:45:41;19.30;99.90
11538;DHT22;50159;49.426;11.182;2022-07-30T07:48:08;19.30;99.90
11538;DHT22;50159;49.426;11.182;2022-07-30T07:50:35;19.30;99.90
11538;DHT22;50159;49.426;11.182;2022-07-30T07:53:03;19.30;99.90
11538;DHT22;50159;49.426;11.182;2022-07-30T07:55:30;19.30;99.90
11538;DHT22;50159;49.426;11.182;2022-07-30T07:57:59;19.40;99.90
11538;DHT22;50159;49.426;11.182;2022-07-30T08:00:26;19.60;99.90
11538;DHT22;50159;49.426;11.182;2022-07-30T08:02:52;19.70;99.90
11538;DHT22;50159;49.426;11.182;2022-07-30T08:05:19;19.70;99.90
11538;DHT22;50159;49.426;11.182;2022-07-30T08:07:46;19.70;99.90
11538;DHT22;50159;49.426;11.182;2022-07-30T08:10:13;19.70;99.90
11538;DHT22;50159;49.426;11.182;2022-07-30T08:12:41;19.80;99.90
11538;DHT22;50159;49.426;11.182;2022-07-30T08:15:09;20.00;99.90
11538;DHT22;50159;49.426;11.182;2022-07-30T08:17:43;20.20;99.90
11538;DHT22;50159;49.426;11.182;2022-07-30T08:20:13;20.50;99.90
11538;DHT22;50159;49.426;11.182;2022-07-30T08:22:41;20.60;99.90
11538;DHT22;50159;49.426;11.182;2022-07-30T08:25:08;20.60;99.90
11538;DHT22;50159;49.426;11.182;2022-07-30T08:27:35;20.60;99.90
11538;DHT22;50159;49.426;11.182;2022-07-30T08:30:06;20.60;99.90
11538;DHT22;50159;49.426;11.182;2022-07-30T08:32:35;20.70;99.90
11538;DHT22;50159;49.426;11.182;2022-07-30T08:35:03;20.80;99.90
11538;DHT22;50159;49.426;11.182;2022-07-30T08:37:30;20.90;99.90
11538;DHT22;50159;49.426;11.182;2022-07-30T08:39:57;21.00;99.90
11538;DHT22;50159;49.426;11.182;2022-07-30T08:42:25;21.20;99.90
11538;DHT22;50159;49.426;11.182;2022-07-30T08:44:53;21.20;99.90
11538;DHT22;50159;49.426;11.182;2022-07-30T08:47:24;21.30;99.90
11538;DHT22;50159;49.426;11.182;2022-07-30T08:49:57;21.30;99.90
11538;DHT22;50159;49.426;11.182;2022-07-30T08:52:35;21.30;99.90
11538;DHT22;50159;49.426;11.182;2022-07-30T08:55:06;21.20;99.30
11538;DHT22;50159;49.426;11.182;2022-07-30T08:57:34;21.10;99.00
11538;DHT22;50159;49.426;11.182;2022-07-30T09:00:02;21.00;99.80
11538;DHT22;50159;49.426;11.182;2022-07-30T09:02:32;21.00;99.60
11538;DHT22;50159;49.426;11.182;2022-07-30T09:04:59;21.00;99.60
11538;DHT22;50159;49.426;11.182;2022-07-30T09:07:26;21.10;99.70
11538;DHT22;50159;49.426;11.182;2022-07-30T09:09:53;21.10;99.90
11538;DHT22;50159;49.426;11.182;2022-07-30T09:15:10;21.20;98.50
11538;DHT22;50159;49.426;11.182;2022-07-30T09:18:00;21.10;99.60
11538;DHT22;50159;49.426;11.182;2022-07-30T09:20:34;21.10;99.90
11538;DHT22;50159;49.426;11.182;2022-07-30T09:23:04;21.10;99.90
11538;DHT22;50159;49.426;11.182;2022-07-30T09:25:39;21.20;99.60
11538;DHT22;50159;49.426;11.182;2022-07-30T09:28:07;21.30;99.50
11538;DHT22;50159;49.426;11.182;2022-07-30T09:30:51;21.30;99.50
11538;DHT22;50159;49.426;11.182;2022-07-30T09:33:38;21.50;99.80
11538;DHT22;50159;49.426;11.182;2022-07-30T09:36:09;21.70;99.60
11538;DHT22;50159;49.426;11.182;2022-07-30T09:38:49;21.90;99.20
11538;DHT22;50159;49.426;11.182;2022-07-30T09:41:20;22.00;98.00
11538;DHT22;50159;49.426;11.182;2022-07-30T09:44:06;22.00;97.60
11538;DHT22;50159;49.426;11.182;2022-07-30T09:46:43;22.00;96.70
11538;DHT22;50159;49.426;11.182;2022-07-30T09:49:19;22.20;96.30
11538;DHT22;50159;49.426;11.182;2022-07-30T09:51:48;22.10;95.00
11538;DHT22;50159;49.426;11.182;2022-07-30T09:54:23;22.40;95.40
11538;DHT22;50159;49.426;11.182;2022-07-30T09:57:05;22.80;95.50
11538;DHT22;50159;49.426;11.182;2022-07-30T09:59:54;23.30;93.80
11538;DHT22;50159;49.426;11.182;2022-07-30T10:02:34;23.50;91.40
11538;DHT22;50159;49.426;11.182;2022-07-30T10:05:13;23.60;90.80
11538;DHT22;50159;49.426;11.182;2022-07-30T10:10:21;24.10;88.00
11538;DHT22;50159;49.426;11.182;2022-07-30T10:12:58;24.40;84.50
11538;DHT22;50159;49.426;11.182;2022-07-30T10:15:32;24.60;83.10
11538;DHT22;50159;49.426;11.182;2022-07-30T10:18:02;24.90;81.80
11538;DHT22;50159;49.426;11.182;2022-07-30T10:20:32;25.20;79.30
11538;DHT22;50159;49.426;11.182;2022-07-30T10:23:01;25.20;78.80
11538;DHT22;50159;49.426;11.182;2022-07-30T10:25:35;25.20;74.50
11538;DHT22;50159;49.426;11.182;2022-07-30T10:28:21;25.20;72.60
11538;DHT22;50159;49.426;11.182;2022-07-30T10:30:54;25.40;70.60
11538;DHT22;50159;49.426;11.182;2022-07-30T10:33:27;25.40;68.40
11538;DHT22;50159;49.426;11.182;2022-07-30T10:36:02;25.10;66.70
11538;DHT22;50159;49.426;11.182;2022-07-30T10:38:30;25.00;68.90
11538;DHT22;50159;49.426;11.182;2022-07-30T10:41:34;25.20;68.90
11538;DHT22;50159;49.426;11.182;2022-07-30T10:47:16;25.60;64.80
11538;DHT22;50159;49.426;11.182;2022-07-30T10:50:07;25.60;65.00
11538;DHT22;50159;49.426;11.182;2022-07-30T10:52:46;25.60;66.50
11538;DHT22;50159;49.426;11.182;2022-07-30T10:55:25;25.70;65.20
11538;DHT22;50159;49.426;11.182;2022-07-30T10:58:08;25.80;62.90
11538;DHT22;50159;49.426;11.182;2022-07-30T11:03:19;25.70;60.20
11538;DHT22;50159;49.426;11.182;2022-07-30T11:08:49;25.90;59.40
11538;DHT22;50159;49.426;11.182;2022-07-30T11:14:09;26.10;58.80
11538;DHT22;50159;49.426;11.182;2022-07-30T11:22:23;25.50;58.50
11538;DHT22;50159;49.426;11.182;2022-07-30T11:24:51;25.20;60.20
11538;DHT22;50159;49.426;11.182;2022-07-30T11:27:40;25.00;61.20
11538;DHT22;50159;49.426;11.182;2022-07-30T11:36:04;24.10;63.00
11538;DHT22;50159;49.426;11.182;2022-07-30T11:38:56;23.90;64.40
11538;DHT22;50159;49.426;11.182;2022-07-30T11:41:32;23.70;66.40
11538;DHT22;50159;49.426;11.182;2022-07-30T11:44:28;23.60;69.60
11538;DHT22;50159;49.426;11.182;2022-07-30T11:46:55;23.60;73.80
11538;DHT22;50159;49.426;11.182;2022-07-30T11:49:22;23.60;75.60
11538;DHT22;50159;49.426;11.182;2022-07-30T11:51:49;23.60;76.20
11538;DHT22;50159;49.426;11.182;2022-07-30T11:54:16;23.70;77.20
11538;DHT22;50159;49.426;11.182;2022-07-30T11:59:14;23.70;78.00
11538;DHT22;50159;49.426;11.182;2022-07-30T12:01:41;23.70;79.30
11538;DHT22;50159;49.426;11.182;2022-07-30T12:04:09;23.70;78.90
11538;DHT22;50159;49.426;11.182;2022-07-30T12:06:43;23.80;78.60
11538;DHT22;50159;49.426;11.182;2022-07-30T12:09:11;23.90;78.90
11538;DHT22;50159;49.426;11.182;2022-07-30T12:11:46;23.90;77.90
11538;DHT22;50159;49.426;11.182;2022-07-30T12:14:13;24.00;78.30
11538;DHT22;50159;49.426;11.182;2022-07-30T12:16:48;23.90;77.70
11538;DHT22;50159;49.426;11.182;2022-07-30T12:19:16;23.80;76.60
11538;DHT22;50159;49.426;11.182;2022-07-30T12:21:43;23.80;77.30
11538;DHT22;50159;49.426;11.182;2022-07-30T12:24:23;23.70;77.00
11538;DHT22;50159;49.426;11.182;2022-07-30T12:26:52;23.90;78.10
11538;DHT22;50159;49.426;11.182;2022-07-30T12:29:31;24.40;75.90
11538;DHT22;50159;49.426;11.182;2022-07-30T12:31:59;24.90;72.80
11538;DHT22;50159;49.426;11.182;2022-07-30T12:34:27;25.00;69.40
11538;DHT22;50159;49.426;11.182;2022-07-30T12:36:54;24.80;66.50
11538;DHT22;50159;49.426;11.182;2022-07-30T12:39:31;24.50;66.60
11538;DHT22;50159;49.426;11.182;2022-07-30T12:41:58;24.30;67.50
11538;DHT22;50159;49.426;11.182;2022-07-30T12:44:40;24.00;66.80
11538;DHT22;50159;49.426;11.182;2022-07-30T12:47:24;23.60;68.70
11538;DHT22;50159;49.426;11.182;2022-07-30T12:49:53;23.10;73.30
11538;DHT22;50159;49.426;11.182;2022-07-30T12:52:25;22.70;76.90
11538;DHT22;50159;49.426;11.182;2022-07-30T12:55:09;22.30;82.20
11538;DHT22;50159;49.426;11.182;2022-07-30T12:57:55;21.90;86.40
11538;DHT22;50159;49.426;11.182;2022-07-30T13:00:48;21.50;90.50
11538;DHT22;50159;49.426;11.182;2022-07-30T13:05:53;21.20;95.70
11538;DHT22;50159;49.426;11.182;2022-07-30T13:08:47;21.30;98.30
11538;DHT22;50159;49.426;11.182;2022-07-30T13:11:19;21.40;99.90
11538;DHT22;50159;49.426;11.182;2022-07-30T13:13:48;21.60;99.90
11538;DHT22;50159;49.426;11.182;2022-07-30T13:16:17;21.70;99.90
11538;DHT22;50159;49.426;11.182;2022-07-30T13:18:45;22.00;99.90
11538;DHT22;50159;49.426;11.182;2022-07-30T13:21:12;22.20;99.90
11538;DHT22;50159;49.426;11.182;2022-07-30T13:23:40;22.50;99.90
11538;DHT22;50159;49.426;11.182;2022-07-30T13:26:09;23.10;99.90
11538;DHT22;50159;49.426;11.182;2022-07-30T13:28:36;23.60;99.20
11538;DHT22;50159;49.426;11.182;2022-07-30T13:31:03;24.10;96.70
11538;DHT22;50159;49.426;11.182;2022-07-30T13:33:31;24.50;93.30
11538;DHT22;50159;49.426;11.182;2022-07-30T13:35:58;25.00;91.60
11538;DHT22;50159;49.426;11.182;2022-07-30T13:38:25;25.40;87.70
11538;DHT22;50159;49.426;11.182;2022-07-30T13:40:53;25.60;84.50
11538;DHT22;50159;49.426;11.182;2022-07-30T13:43:26;25.60;84.40
11538;DHT22;50159;49.426;11.182;2022-07-30T13:45:53;25.70;84.50
11538;DHT22;50159;49.426;11.182;2022-07-30T13:48:25;25.90;80.10
11538;DHT22;50159;49.426;11.182;2022-07-30T13:50:52;26.20;75.60
11538;DHT22;50159;49.426;11.182;2022-07-30T13:53:19;26.20;67.90
11538;DHT22;50159;49.426;11.182;2022-07-30T13:55:46;26.40;65.20
11538;DHT22;50159;49.426;11.182;2022-07-30T13:58:13;26.70;63.80
11538;DHT22;50159;49.426;11.182;2022-07-30T14:00:40;27.00;59.30
11538;DHT22;50159;49.426;11.182;2022-07-30T14:03:10;27.30;56.80
11538;DHT22;50159;49.426;11.182;2022-07-30T14:05:37;27.30;54.60
11538;DHT22;50159;49.426;11.182;2022-07-30T14:08:09;27.40;54.30
11538;DHT22;50159;49.426;11.182;2022-07-30T14:10:38;27.30;53.70
11538;DHT22;50159;49.426;11.182;2022-07-30T14:13:07;26.80;52.90
11538;DHT22;50159;49.426;11.182;2022-07-30T14:15:39;26.30;54.30
11538;DHT22;50159;49.426;11.182;2022-07-30T14:18:06;25.80;55.10
11538;DHT22;50159;49.426;11.182;2022-07-30T14:20:33;25.40;56.50
11538;DHT22;50159;49.426;11.182;2022-07-30T14:23:00;25.20;56.60
11538;DHT22;50159;49.426;11.182;2022-07-30T14:25:27;25.10;57.50
11538;DHT22;50159;49.426;11.182;2022-07-30T14:27:54;24.90;56.10
11538;DHT22;50159;49.426;11.182;2022-07-30T14:30:21;24.90;56.70
11538;DHT22;50159;49.426;11.182;2022-07-30T14:32:49;24.80;57.40
11538;DHT22;50159;49.426;11.182;2022-07-30T14:35:24;24.80;57.10
11538;DHT22;50159;49.426;11.182;2022-07-30T14:37:51;24.70;57.00
11538;DHT22;50159;49.426;11.182;2022-07-30T14:40:18;24.70;57.80
11538;DHT22;50159;49.426;11.182;2022-07-30T14:42:45;24.70;57.80
11538;DHT22;50159;49.426;11.182;2022-07-30T14:45:13;24.90;58.30
11538;DHT22;50159;49.426;11.182;2022-07-30T14:47:40;26.00;57.10
11538;DHT22;50159;49.426;11.182;2022-07-30T14:50:07;28.00;53.50
11538;DHT22;50159;49.426;11.182;2022-07-30T14:52:36;30.10;60.00
11538;DHT22;50159;49.426;11.182;2022-07-30T14:55:06;30.60;45.30
11538;DHT22;50159;49.426;11.182;2022-07-30T14:57:34;30.00;45.70
11538;DHT22;50159;49.426;11.182;2022-07-30T15:00:02;29.30;47.20
11538;DHT22;50159;49.426;11.182;2022-07-30T15:02:30;29.20;47.20
11538;DHT22;50159;49.426;11.182;2022-07-30T15:04:57;28.70;47.50
11538;DHT22;50159;49.426;11.182;2022-07-30T15:07:24;28.50;47.00
11538;DHT22;50159;49.426;11.182;2022-07-30T15:09:51;28.20;46.80
11538;DHT22;50159;49.426;11.182;2022-07-30T15:12:17;28.10;47.40
11538;DHT22;50159;49.426;11.182;2022-07-30T15:14:52;28.30;48.00
11538;DHT22;50159;49.426;11.182;2022-07-30T15:17:19;28.70;46.80
11538;DHT22;50159;49.426;11.182;2022-07-30T15:19:46;28.80;46.00
11538;DHT22;50159;49.426;11.182;2022-07-30T15:22:18;29.60;44.60
11538;DHT22;50159;49.426;11.182;2022-07-30T15:24:45;30.30;42.90
11538;DHT22;50159;49.426;11.182;2022-07-30T15:27:12;30.50;41.60
11538;DHT22;50159;49.426;11.182;2022-07-30T15:29:39;30.20;41.80
11538;DHT22;50159;49.426;11.182;2022-07-30T15:32:06;29.80;42.50
11538;DHT22;50159;49.426;11.182;2022-07-30T15:34:33;29.20;43.20
11538;DHT22;50159;49.426;11.182;2022-07-30T15:37:01;28.30;45.00
11538;DHT22;50159;49.426;11.182;2022-07-30T15:39:29;27.60;47.00
11538;DHT22;50159;49.426;11.182;2022-07-30T15:42:01;27.10;49.00
11538;DHT22;50159;49.426;11.182;2022-07-30T15:44:31;26.80;49.80
11538;DHT22;50159;49.426;11.182;2022-07-30T15:46:59;26.50;51.20
11538;DHT22;50159;49.426;11.182;2022-07-30T15:49:27;26.20;52.30
11538;DHT22;50159;49.426;11.182;2022-07-30T15:51:54;25.90;54.00
11538;DHT22;50159;49.426;11.182;2022-07-30T15:54:22;25.70;55.20
11538;DHT22;50159;49.426;11.182;2022-07-30T15:56:50;25.50;55.90
11538;DHT22;50159;49.426;11.182;2022-07-30T15:59:20;25.50;56.30
11538;DHT22;50159;49.426;11.182;2022-07-30T16:01:47;25.70;56.00
11538;DHT22;50159;49.426;11.182;2022-07-30T16:04:15;25.80;55.90
11538;DHT22;50159;49.426;11.182;2022-07-30T16:06:46;25.60;56.00
11538;DHT22;50159;49.426;11.182;2022-07-30T16:09:15;25.30;55.60
11538;DHT22;50159;49.426;11.182;2022-07-30T16:11:42;25.00;56.50
11538;DHT22;50159;49.426;11.182;2022-07-30T16:14:09;24.80;57.80